Flight Track Log - Related Links

Times and Time Zones

All times are in EST time to prevent confusion due to time zone crossing. See the GTX653 flight status page for this flight to view local times or setup timezone preferences in your user account.


Time Position Orientation Groundspeed Altitude Reporting Facility
EST Latitude Longitude Course Direction KTS MPH feet Rate Location/Type
Mon 11:55:06 PM 32.9667 -96.8333 140° Southeast 119 137 1,000  Level Dallas / Fort Worth TRACON
Mon 11:56:18 PM 32.9333 -96.8000 140° Southeast 102 117 2,000 783 Climbing Dallas / Fort Worth TRACON
Mon 11:57:24 PM 32.9000 -96.8167 203° Southwest 111 128 2,800 667 Climbing Dallas / Fort Worth TRACON
Mon 11:58:24 PM 32.8667 -96.8333 203° Southwest 115 132 3,400 579 Climbing Dallas / Fort Worth TRACON
Mon 11:59:18 PM 32.8500 -96.8500 220° Southwest 120 138 3,900 263 Climbing Dallas / Fort Worth TRACON
Tue 12:00:18 AM 32.8167 -96.8667 203° Southwest 149 171 3,900  Level Dallas / Fort Worth TRACON
Tue 12:02:07 AM 32.7450 -96.8900 195° South 152 175 3,900 142 Level Fort Worth Center
Tue 12:03:07 AM 32.7025 -96.8958 187° South 153 176 4,300 496 Climbing Fort Worth Center
Tue 12:04:08 AM 32.6644 -96.8983 183° South 143 165 4,900 590 Climbing Fort Worth Center
Tue 12:05:09 AM 32.6247 -96.9017 184° South 137 158 5,500 492 Climbing Fort Worth Center
Tue 12:06:10 AM 32.5856 -96.9042 183° South 140 161 5,900 197 Climbing Fort Worth Center
Tue 12:07:11 AM 32.5397 -96.9081 184° South 160 184 5,900  Level Fort Worth Center
Tue 12:08:11 AM 32.4906 -96.9122 184° South 168 193 5,900  Level Fort Worth Center
Tue 12:09:12 AM 32.4428 -96.9167 184° South 170 196 5,900  Level Fort Worth Center
Tue 12:10:13 AM 32.3956 -96.9228 186° South 172 198 5,900  Level Fort Worth Center
Tue 12:11:14 AM 32.3483 -96.9289 186° South 171 197 5,900  Level Fort Worth Center
Tue 12:12:14 AM 32.3064 -96.9483 201° Southwest 165 190 5,900  Level Fort Worth Center
Tue 12:13:15 AM 32.2622 -96.9631 196° South 165 190 5,900  Level Fort Worth Center
Tue 12:14:16 AM 32.2172 -96.9786 196° South 165 190 5,900 50 Level Fort Worth Center
Tue 12:15:16 AM 32.1725 -96.9919 194° South 165 190 6,000  Climbing Fort Worth Center
Tue 12:16:17 AM 32.1281 -97.0067 196° South 165 190 5,900  Descending Fort Worth Center
Tue 12:17:17 AM 32.0825 -97.0208 195° South 166 191 6,000 50 Climbing Fort Worth Center
Tue 12:18:18 AM 32.0375 -97.0339 194° South 166 191 6,000 -49 Level Fort Worth Center
Tue 12:19:19 AM 31.9917 -97.0436 190° South 166 191 5,900 -50 Descending Fort Worth Center
Tue 12:20:19 AM 31.9453 -97.0611 198° South 166 191 5,900  Level Fort Worth Center
Tue 12:21:20 AM 31.9008 -97.0733 193° South 166 191 5,900  Level Fort Worth Center
Tue 12:22:21 AM 31.8558 -97.0864 194° South 162 186 5,900 50 Level Houston Center
Tue 12:23:21 AM 31.8128 -97.1025 198° South 161 185 6,000 50 Climbing Houston Center
Tue 12:24:21 AM 31.7686 -97.1169 196° South 162 186 6,000 -50 Level Houston Center
Tue 12:25:22 AM 31.7253 -97.1297 194° South 162 186 5,900  Descending Fort Worth Center
Tue 12:26:23 AM 31.6808 -97.1447 196° South 162 186 6,000 69 Climbing Fort Worth Center
Tue 12:26:49 AM 31.6603 -97.1511 195° South 164 189 6,000  Level Fort Worth Center
Tue 12:27:07 AM 31.6461 -97.1561 197° South 165 190 6,000 -176 Level Fort Worth Center
Tue 12:27:23 AM 31.6364 -97.1586 192° South 162 186 5,900  Descending Fort Worth Center
Tue 12:28:08 AM 31.6058 -97.1703 198° South 164 189 6,000  Climbing Fort Worth Center
Tue 12:28:24 AM 31.5919 -97.1744 194° South 163 188 5,900  Descending Fort Worth Center
Tue 12:29:09 AM 31.5592 -97.1858 196° South 162 186 6,000  Climbing Fort Worth Center
Tue 12:29:24 AM 31.5481 -97.1875 187° South 163 188 5,900 -100 Descending Fort Worth Center
Tue 12:30:09 AM 31.5164 -97.1981 196° South 162 186 5,900 98 Level Fort Worth Center
Tue 12:30:25 AM 31.5039 -97.2017 194° South 162 186 6,000 98 Climbing Fort Worth Center
Tue 12:31:10 AM 31.4742 -97.2150 201° Southwest 158 182 6,000  Level Fort Worth Center
Tue 12:31:25 AM 31.4628 -97.2183 194° South 160 184 6,000  Level Fort Worth Center
Tue 12:32:10 AM 31.4339 -97.2294 198° South 158 182 6,000 -98 Level Fort Worth Center
Tue 12:32:26 AM 31.4189 -97.2328 191° South 160 184 5,900  Descending Fort Worth Center
Tue 12:33:11 AM 31.3869 -97.2422 194° South 161 185 6,000 100 Climbing Fort Worth Center
Tue 12:33:26 AM 31.3831 -97.2442 203° Southwest 160 184 6,000  Level Fort Worth Center
Tue 12:34:24 AM 31.3400 -97.2597 197° South 158 182 6,000  Level Houston Center
Tue 12:35:25 AM 31.2975 -97.2761 198° South 158 182 6,000  Level Houston Center
Tue 12:36:25 AM 31.2544 -97.2917 197° South 159 183 6,000  Level Houston Center
Tue 12:37:25 AM 31.2111 -97.3042 194° South 160 184 6,000  Level Houston Center
Tue 12:38:26 AM 31.1681 -97.3178 195° South 159 183 6,000  Level Houston Center
Tue 12:39:26 AM 31.1258 -97.3319 196° South 158 182 6,000  Level Houston Center
Tue 12:40:26 AM 31.0844 -97.3497 200° South 158 182 6,000  Level Houston Center
Tue 12:41:27 AM 31.0425 -97.3661 199° South 158 182 6,000  Level Houston Center
Tue 12:42:27 AM 30.9997 -97.3803 196° South 158 182 6,000  Level Houston Center
Tue 12:43:27 AM 30.9567 -97.3944 196° South 160 184 6,000  Level Houston Center
Tue 12:44:27 AM 30.9139 -97.4075 195° South 160 184 6,000  Level Houston Center
Tue 12:45:28 AM 30.8703 -97.4222 196° South 161 185 6,000  Level Houston Center
Tue 12:46:28 AM 30.8256 -97.4358 195° South 164 189 6,000  Level Houston Center
Tue 12:47:28 AM 30.7811 -97.4514 197° South 165 190 6,000  Level Houston Center
Tue 12:48:28 AM 30.7364 -97.4664 196° South 166 191 6,000  Level Houston Center
Tue 12:49:29 AM 30.6900 -97.4808 195° South 169 194 6,000  Level Houston Center
Tue 12:50:29 AM 30.6444 -97.4981 198° South 171 197 6,000 -50 Level Houston Center
Tue 12:51:29 AM 30.6039 -97.5256 210° Southwest 167 192 5,900 -400 Descending Houston Center
Tue 12:52:29 AM 30.5622 -97.5536 210° Southwest 170 196 5,200 -700 Descending Houston Center
Tue 12:53:29 AM 30.5211 -97.5825 211° Southwest 171 197 4,500 -645 Descending Houston Center
Tue 12:54:30 AM 30.4808 -97.6111 211° Southwest 170 196 3,900 -595 Descending Houston Center
Tue 12:55:30 AM 30.4397 -97.6350 207° Southwest 166 191 3,300 -600 Descending Houston Center
Tue 12:56:30 AM 30.3975 -97.6575 205° Southwest 165 190 2,700 -400 Descending Houston Center
Tue 12:57:30 AM 30.3575 -97.6622 186° South 156 180 2,500 -100 Descending Houston Center
Tue 12:58:30 AM 30.3208 -97.6608 178° South 139 160 2,500 -149 Level Houston Center
Tue 12:59:31 AM 30.2886 -97.6597 178° South 127 146 2,200 -446 Descending Houston Center
Tue 01:00:31 AM 30.2636 -97.6594 179° South 118 136 1,600 -600 Descending Houston Center

Login

Don't have an account? Register now (free) for customized features, flight alerts, and more!